Notice: iconv(): Detected an illegal character in input string in /home/meteolat/www/weather28/wsLangFunctions.php on line 115

Notice: iconv(): Detected an illegal character in input string in /home/meteolat/www/weather28/wsLangFunctions.php on line 115
Météorologique de l'aéroport - Météo La Turballe
Notice: Undefined index: wuKey in /home/meteolat/www/weather28/wuforecast/wualmanac.php on line 27

Il s'agit d'un problème de communication. Allez directement sur le site Meteoalarm : www.meteoalarm.eu et vérifier les avertissements météorologiques..


Visitez nos sites météorologiques autres:

Template documentation
and downloads

And another site



Rapports METAR proximité

   
EHVK - Volkel Rnlafb, Netherlands
Distance: SO 18 km
Mise à jour: 23-02-2024 10:55
Nuageux  
Nuageux  
   Vent: SSO 31.5 km/h
Vent: SSO 31.5 km/h
Température: 7°C
éolien: 3°C
Point de rosée: 3°C
Humidité: 76%
Baromètre: 990 hPa
Nuageux: Nuageux
visibilité: More than 10 km
Détails des nuages: Nuageux 2200 ft,
Nuageux 2700 ft
EHVK 230955Z AUTO 20017KT 160V240 9999 BKN022 OVC027 07/03 Q0990 WHT NOSIG
EDLV - Niederrhein, Germany
Distance: SE 25 km
Mise à jour: 23-02-2024 10:50
Nuageux  
Nuageux  
   Vent: Sud 25.9 km/h
Vent: Sud 25.9 km/h
Température: 7°C
éolien: 3°C
Point de rosée: 2°C
Humidité: 71%
Baromètre: 991 hPa
Nuageux: Nuageux
visibilité: More than 10 km
Détails des nuages: Nuageux 2800 ft,
Nuageux 3500 ft
EDLV 230950Z 19014KT 9999 BKN028 OVC035 07/02 Q0991
EHDL - Deelen Rnlafb, Netherlands
Distance: N 35 km
Mise à jour: 23-02-2024 10:55
Nuageux  
Nuageux  
   Vent: Sud 33.3 km/h<br />Gust to 33.3 km/h
Vent: Sud 33.3 km/h
Gust to 33.3 km/h
Température: 7°C
éolien: 2°C
Point de rosée: 2°C
Humidité: 71%
Baromètre: 989 hPa
Nuageux: Nuageux
visibilité: More than 10 km
Détails des nuages: Nuageux 2300 ft,
Nuageux 2700 ft
EHDL 230955Z AUTO 19018G29KT 130V250 9999 BKN023 OVC027 07/02 Q0989 WHT
EHEH - Eindhoven Rnlafb, Netherlands
Distance: SO 48 km
Mise à jour: 23-02-2024 10:55
Nuageux  
Nuageux  
   Vent: SSO 33.3 km/h<br />Gust to 33.3 km/h
Vent: SSO 33.3 km/h
Gust to 33.3 km/h
Température: 7°C
éolien: 2°C
Point de rosée: 3°C
Humidité: 76%
Baromètre: 990 hPa
Nuageux: Nuageux
visibilité: More than 10 km
Détails des nuages: Nuageux 1800 ft,
Nuageux 2100 ft
EHEH 230955Z AUTO 21018G32KT 9999 BKN018 OVC021 07/03 Q0990 REDZ WHT TEMPO 21017G32KT SCT016 BKN020
EHGR - Gilze-Rijen Rnla, Netherlands
Distance: OSO 70 km
Mise à jour: 23-02-2024 10:55
Nuageux  
Nuageux  
   Vent: SSO 31.5 km/h<br />Gust to 31.5 km/h
Vent: SSO 31.5 km/h
Gust to 31.5 km/h
Température: 7°C
éolien: 3°C
Point de rosée: 3°C
Humidité: 76%
Baromètre: 989 hPa
Nuageux: Nuageux
visibilité: More than 10 km
Détails des nuages: Peu de nuages 1700 ft,
Nuageux 2100 ft,
Nuageux 2400 ft
EHGR 230955Z AUTO 21017G27KT 170V250 9999 FEW017 BKN021 BKN024 07/03 Q0989 WHT TEMPO 20018G28KT
EBBL - Kleine-Brogel(Ba, Belgium
Distance: SSO 71 km
Mise à jour: 23-02-2024 10:55
Nuageux  
Nuageux  
   Vent: SO 35.2 km/h
Vent: SO 35.2 km/h
Température: 7°C
éolien: 2°C
Point de rosée: 3°C
Humidité: 76%
Baromètre: 990 hPa
Nuageux: Nuageux
visibilité: More than 10 km
Détails des nuages: Partiellement nuageux 2200 ft,
Nuageux 3300 ft
EBBL 230955Z 22019KT 9999 SCT022 BKN033 07/03 Q0990 WHT BLU TEMPO WHT

Script développé par  Saratoga-weather.org Adapté pour le modèle par  Weerstation Leuven

Équipement que nous utilisons:

Station de Météo
Davis Vantage Pro2

Davis Vantage Pro2